メインページ
METAR-TAF:

METAR-TAF

空港 :

マデイラ空港

フンシャル, マデイラ諸島, ポルトガル

緯度: 32-41-52N, 経度: 016-46-28W, 海抜: 59m

現時点の気象観測

当レポートは34分前の13:30(UTC)に作成
南西の風 6kt、から西の間で変化する
気温 20°C
湿度 56%
気圧 1012 hPa
視程10km以上
高度1500ftの雲はほとんどない

METAR: LPMA 191330Z 23006KT 180V270 9999 FEW015 20/11 Q1012

時間: 14:04 (14:04 UTC)

予報

当レポートは3時間4分前の11:00(UTC)に作成
予報は19日の 12時(UTC)から 20日の 12時(UTC)まで有効
変向風 5kt
視程10km以上
高度1500ftの雲は散在している
高度3000ftの千切れ雲あり
確率 40%
19日の 12時(UTC)から 19日の 18時(UTC)まで
南/南西の風 8kt
19日の 18時(UTC)から 20日の 06時(UTC)まで一時的に
視程: 6000m
高度1500ftの千切れ雲あり
小雨
20日の 06時(UTC)から 20日の 12時(UTC)まで一時的に
の風 10kt
高度1500ftの雲は散在している

TAF: LPMA 191100Z 1912/2012 VRB05KT 9999 SCT015 BKN030 PROB40 1912/1918 21008KT TEMPO 1918/2006 6000 -RA BKN015 TEMPO 2006/2012 01010KT SCT015

4,000以上の空港の気象観測と天気予報(METAR報とTAF報)

利用可能な観測所は地図上に黄色い丸と赤い丸で示す。

丸の上にカーソルを重ねると観測所名を参照できる。

次にクリックすると気象観測と天気予報を参照できる。

マップの切り替え:黒色「×」印の緑ボタンをクリックして拡大、「-」印の緑ボタンをクリックして縮小、緑色の三角印をクリックして隣りの地図に切り替え


METAR-TAF: